Time;durP1;ratioP1;P1;durP2;ratioP2;P2;SDS_P1;SDS_P2;PMS_P1;PMS_P2;Temp;Humidity;BMP_temperature;BMP_pressure;BME280_temperature;BME280_humidity;BME280_pressure;Samples;Min_cycle;Max_cycle;Signal;HPM_P1;HPM_P2
2022/01/20 00:02:10;;;;;;;;;;;;;;;24.20;25.65;100204.59;4974675;28;1423;-71
2022/01/20 00:04:44;;;;;;;;;;;;;;;23.17;27.27;100209.31;4974572;28;1137;-70
2022/01/20 00:07:28;;;;;;;;;;;;;;;24.22;25.99;100225.44;4975570;28;1974;-69
2022/01/20 00:26:30;;;;;;;;;;;;;;;23.37;25.64;100211.97;4935983;28;1986;-71
2022/01/20 00:29:00;;;;;;;;;;;;;;;23.14;26.05;100213.38;4974275;28;821;-71
2022/01/20 00:31:35;;;;;;;;;;;;;;;23.28;25.63;100221.63;4972467;28;1453;-70
2022/01/20 00:34:12;;;;;;;;;;;;;;;22.56;26.38;100225.25;4972459;28;1491;-69
2022/01/20 00:39:23;;;;;;;;;;;;;;;22.98;25.86;100233.22;4972742;28;781;-70
2022/01/20 00:41:50;;;;;;;;;;;;;;;23.35;25.77;100247.34;4972479;28;1308;-69
2022/01/20 00:44:16;;;;;;;;;;;;;;;22.13;26.38;100245.03;4988416;28;1312;-69
2022/01/20 00:46:44;;;;;;;;;;;;;;;24.11;24.51;100237.28;4973613;28;1976;-69
2022/01/20 00:49:10;;;;;;;;;;;;;;;22.62;26.10;100240.13;4972294;28;943;-71
2022/01/20 00:51:36;;;;;;;;;;;;;;;23.72;24.56;100242.88;4973727;28;983;-70
2022/01/20 00:54:03;;;;;;;;;;;;;;;23.42;25.75;100242.63;4988169;28;1393;-71
2022/01/20 00:56:29;;;;;;;;;;;;;;;23.47;25.24;100241.97;4973285;28;983;-70
2022/01/20 00:58:57;;;;;;;;;;;;;;;23.32;25.28;100245.88;4973944;28;1038;-70
2022/01/20 01:01:23;;;;;;;;;;;;;;;23.13;25.61;100249.53;4988323;28;785;-69
2022/01/20 01:03:50;;;;;;;;;;;;;;;24.27;24.14;100249.75;4973209;28;1347;-72
2022/01/20 01:06:29;;;;;;;;;;;;;;;23.26;25.38;100257.81;4987691;28;1910;-71
2022/01/20 01:08:56;;;;;;;;;;;;;;;24.01;24.86;100251.66;4988341;28;995;-69
2022/01/20 01:11:24;;;;;;;;;;;;;;;23.47;25.23;100251.13;4972033;28;802;-70
2022/01/20 01:13:51;;;;;;;;;;;;;;;22.60;27.15;100261.63;4973234;28;1302;-70
2022/01/20 01:16:22;;;;;;;;;;;;;;;22.87;26.50;100262.41;4971756;28;1075;-69
2022/01/20 01:21:46;;;;;;;;;;;;;;;23.51;25.58;100268.16;4937677;28;1141;-72
2022/01/20 01:24:12;;;;;;;;;;;;;;;22.17;27.21;100273.97;4971475;28;778;-70
2022/01/20 01:26:39;;;;;;;;;;;;;;;22.76;26.10;100257.56;4987746;28;2037;-70
2022/01/20 01:29:17;;;;;;;;;;;;;;;21.66;26.96;100256.03;4987896;28;931;-71
2022/01/20 01:31:45;;;;;;;;;;;;;;;23.15;25.39;100270.44;4971844;28;1365;-69
2022/01/20 01:34:13;;;;;;;;;;;;;;;23.32;25.20;100275.50;4971362;28;832;-70
2022/01/20 01:37:03;;;;;;;;;;;;;;;22.86;25.61;100274.53;4987652;28;951;-71
2022/01/20 01:39:29;;;;;;;;;;;;;;;21.45;26.38;100268.06;4972849;28;919;-72
2022/01/20 01:41:56;;;;;;;;;;;;;;;21.37;26.49;100266.34;4987236;28;1379;-73
2022/01/20 01:44:26;;;;;;;;;;;;;;;20.93;26.19;100278.69;4987351;28;1352;-70
2022/01/20 01:46:58;;;;;;;;;;;;;;;20.06;27.32;100265.09;4971666;28;1914;-68
2022/01/20 01:49:24;;;;;;;;;;;;;;;22.63;24.30;100267.56;4987651;28;841;-71
2022/01/20 01:51:51;;;;;;;;;;;;;;;21.31;25.17;100258.88;4972641;28;1329;-69
2022/01/20 01:54:18;;;;;;;;;;;;;;;21.16;25.59;100268.16;4971249;28;991;-71
2022/01/20 01:56:45;;;;;;;;;;;;;;;20.13;26.75;100265.97;4971385;28;1043;-71
2022/01/20 01:59:14;;;;;;;;;;;;;;;22.93;23.67;100261.56;4970703;28;1590;-70
2022/01/20 02:02:14;;;;;;;;;;;;;;;21.22;24.76;100255.47;4965224;28;1356;-71
2022/01/20 02:04:43;;;;;;;;;;;;;;;21.76;24.46;100262.00;4971013;28;1022;-71
2022/01/20 02:07:54;;;;;;;;;;;;;;;22.09;23.92;100266.72;4972237;28;1914;-70
2022/01/20 02:18:44;;;;;;;;;;;;;;;21.85;24.33;100260.75;4971014;28;1112;-71
2022/01/20 02:21:49;;;;;;;;;;;;;;;21.79;24.46;100249.69;4968652;28;1398;-71
2022/01/20 02:24:16;;;;;;;;;;;;;;;21.34;24.78;100258.47;4971116;28;850;-70
2022/01/20 02:26:43;;;;;;;;;;;;;;;22.40;23.60;100251.44;4971471;28;1981;-73
2022/01/20 02:29:10;;;;;;;;;;;;;;;21.40;24.12;100246.59;4975735;28;805;-70
2022/01/20 02:31:37;;;;;;;;;;;;;;;21.55;24.62;100247.31;4976762;28;991;-72
2022/01/20 02:34:04;;;;;;;;;;;;;;;22.07;23.76;100238.44;4973034;28;1321;-73
2022/01/20 02:36:35;;;;;;;;;;;;;;;21.00;24.98;100236.25;4972247;28;1534;-68
2022/01/20 02:39:10;;;;;;;;;;;;;;;19.93;26.03;100238.25;4976536;28;1077;-71
2022/01/20 02:44:53;;;;;;;;;;;;;;;20.25;25.72;100235.97;4895963;29;1198;-71
2022/01/20 02:47:20;;;;;;;;;;;;;;;21.23;24.81;100232.31;4962701;28;1983;-71
2022/01/20 02:49:47;;;;;;;;;;;;;;;21.12;25.12;100239.28;4954216;28;971;-69
2022/01/20 02:52:13;;;;;;;;;;;;;;;21.17;25.03;100231.22;4970236;28;1302;-69
2022/01/20 02:54:41;;;;;;;;;;;;;;;22.38;23.59;100231.44;4986285;28;943;-69
2022/01/20 02:57:08;;;;;;;;;;;;;;;21.22;24.65;100228.72;4970427;28;778;-69
2022/01/20 02:59:35;;;;;;;;;;;;;;;20.19;25.65;100229.38;4954243;28;1308;-69
2022/01/20 03:02:01;;;;;;;;;;;;;;;21.19;24.77;100234.66;4970396;28;1347;-70
2022/01/20 03:04:28;;;;;;;;;;;;;;;20.85;24.83;100219.84;4971529;28;1034;-69
2022/01/20 03:06:58;;;;;;;;;;;;;;;19.71;26.66;100232.75;4954118;28;1984;-72
2022/01/20 03:09:24;;;;;;;;;;;;;;;20.10;26.16;100219.56;4970202;28;1050;-70
2022/01/20 03:11:52;;;;;;;;;;;;;;;20.78;24.90;100226.38;4971547;28;1342;-72
2022/01/20 03:14:18;;;;;;;;;;;;;;;19.86;25.78;100223.59;4970270;28;907;-69
2022/01/20 03:16:46;;;;;;;;;;;;;;;19.44;26.10;100215.13;4986210;28;1097;-68
2022/01/20 03:19:12;;;;;;;;;;;;;;;20.38;25.32;100226.97;4986308;28;1054;-68
2022/01/20 03:21:39;;;;;;;;;;;;;;;21.38;24.02;100216.44;4970160;28;870;-69
2022/01/20 03:24:06;;;;;;;;;;;;;;;20.67;24.99;100225.00;4971691;28;1375;-68
2022/01/20 03:26:32;;;;;;;;;;;;;;;20.17;25.32;100214.09;4969934;28;1977;-70
2022/01/20 03:29:00;;;;;;;;;;;;;;;20.36;25.29;100215.28;4954143;28;1222;-71
2022/01/20 03:31:27;;;;;;;;;;;;;;;20.79;24.80;100201.38;4969699;28;805;-69
2022/01/20 03:33:53;;;;;;;;;;;;;;;19.07;27.12;100200.50;4970072;28;1358;-72
2022/01/20 03:36:20;;;;;;;;;;;;;;;20.31;25.82;100193.00;4969676;28;924;-71
2022/01/20 03:38:58;;;;;;;;;;;;;;;19.93;26.58;100187.84;4969873;28;813;-70
2022/01/20 03:41:25;;;;;;;;;;;;;;;19.66;27.23;100204.94;4986180;28;921;-70
2022/01/20 03:43:54;;;;;;;;;;;;;;;20.87;26.19;100215.00;4969975;28;1331;-71
2022/01/20 03:46:23;;;;;;;;;;;;;;;20.10;27.26;100196.69;4969795;28;1883;-71
2022/01/20 03:48:51;;;;;;;;;;;;;;;18.12;29.92;100199.34;4969764;28;979;-68
2022/01/20 03:51:21;;;;;;;;;;;;;;;19.28;28.88;100204.34;4970966;28;979;-68
2022/01/20 03:53:48;;;;;;;;;;;;;;;20.86;27.46;100206.94;4970255;28;1393;-70
2022/01/20 03:56:16;;;;;;;;;;;;;;;20.47;27.55;100192.69;4973178;28;1498;-72
2022/01/20 03:58:51;;;;;;;;;;;;;;;19.78;28.70;100205.25;4973562;28;757;-71
2022/01/20 04:01:18;;;;;;;;;;;;;;;20.48;28.16;100205.41;4973536;28;927;-70
2022/01/20 04:04:05;;;;;;;;;;;;;;;20.33;28.79;100218.44;4974655;28;1399;-71
2022/01/20 04:06:42;;;;;;;;;;;;;;;18.50;30.51;100238.63;4989502;28;1914;-71
2022/01/20 04:09:08;;;;;;;;;;;;;;;17.41;32.96;100244.34;4973396;28;1125;-71
2022/01/20 04:11:34;;;;;;;;;;;;;;;18.17;29.21;100208.75;4974070;28;974;-71
2022/01/20 04:14:02;;;;;;;;;;;;;;;15.05;34.94;100233.34;4989558;28;1300;-70
2022/01/20 04:16:34;;;;;;;;;;;;;;;16.95;33.54;100256.06;4973068;28;983;-70
2022/01/20 04:19:02;;;;;;;;;;;;;;;18.01;30.82;100283.03;4973312;28;1090;-71
2022/01/20 04:21:32;;;;;;;;;;;;;;;17.19;31.59;100233.13;4973280;28;999;-70
2022/01/20 04:23:59;;;;;;;;;;;;;;;16.62;32.23;100226.03;4974267;28;1298;-69
2022/01/20 04:26:25;;;;;;;;;;;;;;;17.94;30.34;100213.44;4973549;28;1907;-70
2022/01/20 04:28:55;;;;;;;;;;;;;;;18.24;29.54;100193.22;4976435;28;785;-72
2022/01/20 04:31:22;;;;;;;;;;;;;;;19.90;27.43;100181.66;4975706;28;797;-72
2022/01/20 04:33:50;;;;;;;;;;;;;;;18.71;27.89;100198.53;4973389;28;1396;-70
2022/01/20 04:36:16;;;;;;;;;;;;;;;18.32;27.91;100213.41;4989334;28;900;-72
2022/01/20 04:38:44;;;;;;;;;;;;;;;18.68;27.52;100218.16;4973022;28;793;-72
2022/01/20 04:41:11;;;;;;;;;;;;;;;19.57;26.58;100203.38;4973030;28;841;-72
2022/01/20 04:43:37;;;;;;;;;;;;;;;19.49;26.34;100200.75;4972619;28;1392;-72
2022/01/20 04:46:10;;;;;;;;;;;;;;;19.05;26.41;100194.34;4972556;28;734;-69
2022/01/20 04:48:49;;;;;;;;;;;;;;;19.30;25.79;100202.25;4988767;28;1983;-68
2022/01/20 04:57:14;;;;;;;;;;;;;;;;;;5009562;28;1031;-75
2022/01/20 04:59:40;;;;;;;;;;;;;;;19.82;26.29;100222.28;4992758;28;1302;-75
2022/01/20 05:02:07;;;;;;;;;;;;;;;19.62;26.92;100211.91;5008573;28;991;-73
2022/01/20 05:04:45;;;;;;;;;;;;;;;18.38;28.30;100220.91;5024901;28;1438;-75
2022/01/20 05:07:47;;;;;;;;;;;;;;;19.53;27.06;100211.16;5005541;28;1918;-75
2022/01/20 05:10:15;;;;;;;;;;;;;;;19.44;27.03;100208.75;5011833;28;1070;-75
2022/01/20 05:13:06;;;;;;;;;;;;;;;18.71;28.17;100210.38;5011591;28;1405;-75
2022/01/20 05:15:33;;;;;;;;;;;;;;;19.26;27.50;100223.78;5008611;28;2025;-75
2022/01/20 05:18:00;;;;;;;;;;;;;;;19.07;28.23;100217.84;5010986;28;1301;-75
2022/01/20 05:20:28;;;;;;;;;;;;;;;18.59;28.32;100200.91;4998491;28;1242;-75
2022/01/20 05:22:54;;;;;;;;;;;;;;;19.02;27.52;100197.47;5011486;28;1329;-74
2022/01/20 05:25:25;;;;;;;;;;;;;;;19.04;27.48;100220.13;5010637;28;1010;-77
2022/01/20 05:27:51;;;;;;;;;;;;;;;19.05;26.81;100221.84;5011110;28;1914;-75
2022/01/20 05:30:18;;;;;;;;;;;;;;;19.69;25.85;100217.47;5011025;28;1063;-75
2022/01/20 05:33:17;;;;;;;;;;;;;;;20.17;25.84;100216.84;5010721;28;1387;-75
2022/01/20 05:35:43;;;;;;;;;;;;;;;19.57;26.33;100225.38;5011185;28;1498;-75
2022/01/20 05:38:12;;;;;;;;;;;;;;;20.16;25.77;100216.00;5043238;28;1367;-74
2022/01/20 05:40:40;;;;;;;;;;;;;;;18.77;27.63;100232.66;5010717;28;928;-75
2022/01/20 05:43:07;;;;;;;;;;;;;;;19.30;26.93;100238.84;5010664;28;1405;-75
2022/01/20 05:45:35;;;;;;;;;;;;;;;20.44;25.79;100233.56;5010003;28;1468;-75
2022/01/20 05:48:10;;;;;;;;;;;;;;;20.52;25.64;100226.00;5012938;28;1910;-75
2022/01/20 05:50:55;;;;;;;;;;;;;;;20.40;25.30;100230.38;5022498;28;792;-76
2022/01/20 05:53:21;;;;;;;;;;;;;;;19.71;26.45;100218.13;5014811;28;1409;-76
2022/01/20 05:55:49;;;;;;;;;;;;;;;19.05;27.92;100235.59;5010334;28;1499;-74
2022/01/20 05:58:15;;;;;;;;;;;;;;;17.46;29.60;100252.88;5046193;28;1296;-75
2022/01/20 06:00:42;;;;;;;;;;;;;;;19.11;28.07;100284.34;5010109;28;1559;-75
2022/01/20 06:05:54;;;;;;;;;;;;;;;17.94;29.83;100273.84;5009971;28;1114;-75
2022/01/20 06:08:20;;;;;;;;;;;;;;;16.98;30.51;100271.28;5043297;28;1977;-75
2022/01/20 06:10:48;;;;;;;;;;;;;;;18.54;28.52;100272.91;5011601;28;1502;-75
2022/01/20 06:13:22;;;;;;;;;;;;;;;19.09;27.23;100283.66;5010441;28;1324;-76
2022/01/20 06:15:49;;;;;;;;;;;;;;;17.72;28.52;100277.22;5009301;28;1054;-76
2022/01/20 06:18:15;;;;;;;;;;;;;;;18.43;26.94;100283.53;5009696;28;1010;-74
2022/01/20 06:20:48;;;;;;;;;;;;;;;16.42;29.01;100280.31;5009993;28;1468;-75
2022/01/20 06:23:16;;;;;;;;;;;;;;;17.23;28.16;100280.25;5026357;28;1321;-74
2022/01/20 06:25:43;;;;;;;;;;;;;;;18.02;26.76;100271.03;5009758;28;888;-75
2022/01/20 06:28:11;;;;;;;;;;;;;;;17.86;26.50;100275.56;5009954;28;1910;-75
2022/01/20 06:30:37;;;;;;;;;;;;;;;17.67;26.84;100276.06;5008736;28;1535;-76
2022/01/20 06:33:04;;;;;;;;;;;;;;;18.25;26.21;100298.44;5016696;28;1393;-75
2022/01/20 06:35:38;;;;;;;;;;;;;;;17.76;27.21;100316.16;5019532;28;1481;-76
2022/01/20 06:38:06;;;;;;;;;;;;;;;18.51;25.74;100333.75;5020057;28;1264;-76
2022/01/20 06:40:33;;;;;;;;;;;;;;;14.40;30.01;100347.53;5018688;28;1488;-75
2022/01/20 06:43:00;;;;;;;;;;;;;;;15.90;31.48;100399.25;5023220;28;1331;-74
2022/01/20 06:45:28;;;;;;;;;;;;;;;12.16;37.55;100369.44;4999190;28;938;-76
2022/01/20 06:48:07;;;;;;;;;;;;;;;14.81;33.56;100406.25;5001368;28;1919;-75
2022/01/20 06:50:36;;;;;;;;;;;;;;;14.77;32.51;100402.97;5005707;28;1054;-75
2022/01/20 06:53:02;;;;;;;;;;;;;;;14.20;33.02;100379.63;4992360;28;1420;-75
2022/01/20 06:55:29;;;;;;;;;;;;;;;15.56;29.69;100391.94;5009483;28;1080;-75
2022/01/20 06:57:56;;;;;;;;;;;;;;;15.06;30.92;100402.63;5025909;28;1546;-75
2022/01/20 07:00:25;;;;;;;;;;;;;;;16.62;27.71;100397.75;4993014;28;1445;-74
2022/01/20 07:02:53;;;;;;;;;;;;;;;14.32;29.77;100412.13;5009418;28;1326;-76
2022/01/20 07:05:21;;;;;;;;;;;;;;;14.71;30.50;100411.78;5008377;28;1257;-74
2022/01/20 07:07:48;;;;;;;;;;;;;;;16.32;27.80;100419.34;5008675;28;1906;-77
2022/01/20 07:10:23;;;;;;;;;;;;;;;15.49;29.02;100438.22;5009470;28;1165;-76
2022/01/20 07:12:54;;;;;;;;;;;;;;;15.02;28.29;100428.59;5009717;28;1373;-76
2022/01/20 07:15:20;;;;;;;;;;;;;;;15.84;28.74;100449.19;4992875;28;1159;-76
2022/01/20 07:17:48;;;;;;;;;;;;;;;17.06;26.38;100439.38;5010071;28;1518;-74
2022/01/20 07:20:17;;;;;;;;;;;;;;;16.36;27.09;100461.81;5044335;28;1664;-75
2022/01/20 07:22:59;;;;;;;;;;;;;;;18.15;25.04;100447.03;5026799;28;1507;-74
2022/01/20 07:25:26;;;;;;;;;;;;;;;16.14;26.35;100458.69;5005881;28;1659;-77
2022/01/20 07:27:54;;;;;;;;;;;;;;;14.98;28.20;100451.78;5010711;28;1976;-76
2022/01/20 07:30:21;;;;;;;;;;;;;;;16.35;26.40;100465.56;4997667;28;1418;-77
2022/01/20 07:32:47;;;;;;;;;;;;;;;15.81;26.99;100458.56;5014428;28;1318;-77
2022/01/20 07:35:20;;;;;;;;;;;;;;;16.60;26.89;100462.84;5013410;28;998;-75
2022/01/20 07:37:47;;;;;;;;;;;;;;;16.52;26.36;100458.22;5012807;28;1562;-73
2022/01/20 07:40:13;;;;;;;;;;;;;;;17.61;25.56;100469.75;5014099;28;934;-76
2022/01/20 07:42:40;;;;;;;;;;;;;;;18.59;24.47;100464.78;5013997;28;1321;-76
2022/01/20 07:45:18;;;;;;;;;;;;;;;18.86;24.41;100478.97;5012216;28;1467;-75
2022/01/20 07:47:54;;;;;;;;;;;;;;;17.74;25.15;100493.88;5012500;28;1952;-75
2022/01/20 07:50:22;;;;;;;;;;;;;;;17.44;25.40;100481.78;5010728;28;1574;-74
2022/01/20 07:52:49;;;;;;;;;;;;;;;18.67;24.79;100491.34;5012270;28;1424;-77
2022/01/20 07:55:17;;;;;;;;;;;;;;;18.10;24.87;100492.56;5011160;28;1192;-76
2022/01/20 07:57:43;;;;;;;;;;;;;;;19.34;24.08;100500.75;5012325;28;1547;-75
2022/01/20 08:00:10;;;;;;;;;;;;;;;19.70;22.94;100503.59;5012013;28;1547;-72
2022/01/20 08:02:43;;;;;;;;;;;;;;;20.48;22.72;100511.38;5012764;28;1534;-73
2022/01/20 08:05:11;;;;;;;;;;;;;;;19.78;23.16;100518.34;5027093;28;1532;-74
2022/01/20 08:07:39;;;;;;;;;;;;;;;19.22;23.63;100514.94;5013077;28;1918;-75
2022/01/20 08:10:06;;;;;;;;;;;;;;;18.28;25.04;100522.50;5011800;28;1309;-73
2022/01/20 08:12:32;;;;;;;;;;;;;;;18.32;24.59;100529.34;5012551;28;995;-74
2022/01/20 08:15:04;;;;;;;;;;;;;;;19.70;23.21;100530.28;4990279;28;1606;-74
2022/01/20 08:17:49;;;;;;;;;;;;;;;20.24;22.43;100524.47;5013105;28;1184;-75
2022/01/20 08:20:16;;;;;;;;;;;;;;;19.62;23.19;100524.88;4995059;28;1574;-76
2022/01/20 08:22:49;;;;;;;;;;;;;;;19.73;22.65;100517.00;5011868;28;1407;-77
2022/01/20 08:25:17;;;;;;;;;;;;;;;19.58;23.06;100521.66;5011353;28;1542;-74
2022/01/20 08:27:44;;;;;;;;;;;;;;;19.07;23.20;100517.66;5011971;28;1906;-75
2022/01/20 08:30:11;;;;;;;;;;;;;;;19.35;22.93;100524.47;5012949;28;1510;-75
2022/01/20 08:32:38;;;;;;;;;;;;;;;19.74;22.98;100524.19;5029578;28;971;-76
2022/01/20 08:35:13;;;;;;;;;;;;;;;19.57;22.84;100528.19;5013028;28;1503;-75
2022/01/20 08:37:51;;;;;;;;;;;;;;;20.22;21.43;100537.59;5019532;28;1267;-75
2022/01/20 08:40:22;;;;;;;;;;;;;;;20.67;21.15;100534.72;5018956;28;1334;-74
2022/01/20 08:42:49;;;;;;;;;;;;;;;20.92;21.44;100539.03;5015138;28;1463;-73
2022/01/20 08:45:16;;;;;;;;;;;;;;;21.05;21.55;100548.25;5013367;28;828;-74
2022/01/20 08:47:43;;;;;;;;;;;;;;;21.14;21.14;100549.00;5019256;28;1914;-74
2022/01/20 08:50:12;;;;;;;;;;;;;;;20.23;21.94;100550.31;5049718;28;1592;-73
2022/01/20 08:52:38;;;;;;;;;;;;;;;20.94;21.46;100557.09;5010690;28;1585;-71
2022/01/20 08:55:06;;;;;;;;;;;;;;;20.98;21.05;100547.38;5010954;28;1426;-72
2022/01/20 08:57:52;;;;;;;;;;;;;;;21.90;20.48;100551.06;5011190;28;1586;-72
2022/01/20 09:00:19;;;;;;;;;;;;;;;20.98;20.89;100554.78;5012401;28;1054;-72
2022/01/20 09:02:59;;;;;;;;;;;;;;;21.76;20.61;100542.91;5007338;28;1440;-72
2022/01/20 09:05:26;;;;;;;;;;;;;;;21.73;20.61;100538.63;5010518;28;1491;-73
2022/01/20 09:08:12;;;;;;;;;;;;;;;21.86;20.23;100530.44;5010691;28;1979;-73
2022/01/20 09:10:45;;;;;;;;;;;;;;;22.56;20.56;100535.00;5011836;28;1330;-73
2022/01/20 09:16:01;;;;;;;;;;;;;;;19.45;21.42;100503.03;5010753;28;1010;-74
2022/01/20 09:18:45;;;;;;;;;;;;;;;20.69;21.61;100549.19;5012050;28;1037;-72
2022/01/20 09:21:13;;;;;;;;;;;;;;;19.35;22.53;100550.09;5020765;28;1322;-72
2022/01/20 09:23:40;;;;;;;;;;;;;;;20.51;21.57;100566.16;4975109;28;1326;-74
2022/01/20 09:26:09;;;;;;;;;;;;;;;21.01;21.21;100577.31;5009478;28;1002;-73
2022/01/20 09:28:39;;;;;;;;;;;;;;;20.37;21.66;100567.03;5010933;28;1914;-73
2022/01/20 09:31:07;;;;;;;;;;;;;;;21.16;21.39;100568.94;5012293;28;1060;-75
2022/01/20 09:33:34;;;;;;;;;;;;;;;20.15;21.50;100572.47;5010469;28;1322;-74
2022/01/20 09:36:01;;;;;;;;;;;;;;;21.10;20.66;100566.13;5006448;28;986;-75
2022/01/20 09:38:30;;;;;;;;;;;;;;;21.07;20.66;100575.66;5010328;28;1305;-74
2022/01/20 09:40:58;;;;;;;;;;;;;;;22.49;19.66;100572.81;5042693;28;1500;-74
2022/01/20 09:43:26;;;;;;;;;;;;;;;20.20;22.01;100581.03;5010162;28;1351;-73
2022/01/20 09:45:55;;;;;;;;;;;;;;;20.32;21.43;100580.53;5009730;28;965;-73
2022/01/20 09:48:23;;;;;;;;;;;;;;;21.61;20.87;100567.88;5010173;28;1923;-74
2022/01/20 09:51:11;;;;;;;;;;;;;;;21.45;20.48;100578.13;5009382;28;816;-72
2022/01/20 09:53:47;;;;;;;;;;;;;;;21.32;20.69;100569.75;5009806;28;1341;-73
2022/01/20 09:56:44;;;;;;;;;;;;;;;23.40;18.93;100572.38;4978705;28;1323;-72
2022/01/20 09:59:13;;;;;;;;;;;;;;;22.68;19.52;100573.97;5009305;28;943;-72
2022/01/20 10:01:41;;;;;;;;;;;;;;;23.05;18.70;100560.66;5010415;28;1197;-73
2022/01/20 10:04:21;;;;;;;;;;;;;;;21.92;20.27;100569.34;5009581;28;1342;-73
2022/01/20 10:06:54;;;;;;;;;;;;;;;22.13;19.87;100569.25;5010181;28;907;-74
2022/01/20 10:09:28;;;;;;;;;;;;;;;21.75;20.19;100569.66;5009501;28;1985;-73
2022/01/20 10:12:06;;;;;;;;;;;;;;;22.23;20.17;100564.22;5009702;28;995;-71
2022/01/20 10:14:51;;;;;;;;;;;;;;;22.22;20.67;100573.56;5009524;28;1442;-71
2022/01/20 10:17:36;;;;;;;;;;;;;;;22.34;19.92;100578.47;5011120;28;947;-72
2022/01/20 10:20:05;;;;;;;;;;;;;;;21.49;20.62;100565.63;5009540;28;1369;-73
2022/01/20 10:22:37;;;;;;;;;;;;;;;21.73;20.29;100580.06;5009619;28;986;-72
2022/01/20 10:25:12;;;;;;;;;;;;;;;20.84;21.21;100573.09;5009373;28;1260;-72
2022/01/20 10:28:10;;;;;;;;;;;;;;;19.12;21.99;100574.91;4983680;28;1492;-73
2022/01/20 10:30:38;;;;;;;;;;;;;;;20.96;20.76;100578.97;5008912;28;1926;-72
2022/01/20 10:33:05;;;;;;;;;;;;;;;21.41;20.90;100585.09;4992866;28;1587;-72
2022/01/20 10:35:44;;;;;;;;;;;;;;;21.92;20.09;100574.88;5042005;28;1533;-73
2022/01/20 10:38:28;;;;;;;;;;;;;;;21.22;20.79;100570.94;5042515;28;1442;-71
2022/01/20 10:40:59;;;;;;;;;;;;;;;22.14;19.67;100565.44;5009173;28;1307;-71
2022/01/20 10:43:31;;;;;;;;;;;;;;;21.89;20.65;100574.22;5041960;28;1455;-72
2022/01/20 10:46:03;;;;;;;;;;;;;;;22.13;20.15;100583.06;5042113;28;1517;-71
2022/01/20 10:48:30;;;;;;;;;;;;;;;23.04;20.09;100581.06;5009123;28;1922;-72
2022/01/20 10:50:57;;;;;;;;;;;;;;;22.92;19.59;100580.84;5008985;28;1542;-70
2022/01/20 10:56:05;;;;;;;;;;;;;;;21.12;20.74;100586.97;4963742;28;1360;-73
2022/01/20 10:58:34;;;;;;;;;;;;;;;21.00;21.05;100578.34;4966040;28;1556;-69
2022/01/20 11:01:15;;;;;;;;;;;;;;;22.02;20.80;100586.41;4967102;28;940;-72
2022/01/20 11:03:41;;;;;;;;;;;;;;;22.24;19.81;100590.78;4981157;28;1475;-73
2022/01/20 11:06:09;;;;;;;;;;;;;;;21.33;21.15;100599.06;4950294;29;1099;-70
2022/01/20 11:08:43;;;;;;;;;;;;;;;21.64;20.48;100578.53;4946689;29;1907;-74
2022/01/20 11:11:14;;;;;;;;;;;;;;;21.59;19.97;100575.50;4953266;29;996;-70
2022/01/20 11:13:59;;;;;;;;;;;;;;;21.95;19.46;100599.34;4947761;29;1465;-70
2022/01/20 11:16:27;;;;;;;;;;;;;;;20.98;21.04;100577.72;4952605;29;1547;-73
2022/01/20 11:18:53;;;;;;;;;;;;;;;20.54;21.13;100589.72;4949034;28;2009;-72
2022/01/20 11:21:23;;;;;;;;;;;;;;;20.77;20.96;100602.53;4951571;29;1512;-71
2022/01/20 11:23:50;;;;;;;;;;;;;;;21.67;21.07;100587.25;4961779;28;1481;-72
2022/01/20 11:26:48;;;;;;;;;;;;;;;22.27;20.27;100585.91;4954044;29;1054;-68
2022/01/20 11:29:41;;;;;;;;;;;;;;;20.95;20.84;100585.50;4947261;29;1908;-73
2022/01/20 11:32:30;;;;;;;;;;;;;;;21.61;19.99;100584.44;4937696;29;1207;-71
2022/01/20 11:35:08;;;;;;;;;;;;;;;22.13;20.16;100594.13;4952528;29;1603;-71
2022/01/20 11:37:35;;;;;;;;;;;;;;;21.65;19.97;100591.28;4949194;29;920;-74
2022/01/20 11:40:09;;;;;;;;;;;;;;;22.88;19.44;100591.47;4956877;28;1254;-72
2022/01/20 11:42:36;;;;;;;;;;;;;;;23.29;18.88;100580.47;4942257;29;1326;-73
2022/01/20 11:45:21;;;;;;;;;;;;;;;20.78;20.26;100590.41;4946027;29;1486;-72
2022/01/20 11:47:49;;;;;;;;;;;;;;;22.43;19.18;100599.41;4955265;28;900;-71
2022/01/20 11:50:15;;;;;;;;;;;;;;;21.14;20.87;100595.91;4954271;28;1922;-70
2022/01/20 11:52:42;;;;;;;;;;;;;;;19.98;20.40;100587.50;4960636;28;1567;-72
2022/01/20 11:55:10;;;;;;;;;;;;;;;19.34;21.35;100606.16;4947653;28;1332;-74
2022/01/20 11:57:36;;;;;;;;;;;;;;;19.66;21.54;100603.31;4942711;28;1492;-70
2022/01/20 12:00:16;;;;;;;;;;;;;;;22.17;19.13;100594.59;4940865;28;1571;-71
2022/01/20 12:02:42;;;;;;;;;;;;;;;21.06;20.62;100604.31;4940118;29;1571;-68
2022/01/20 12:05:27;;;;;;;;;;;;;;;21.53;19.86;100596.47;4934063;29;1284;-71
2022/01/20 12:08:19;;;;;;;;;;;;;;;21.67;19.44;100595.53;4953393;28;1317;-70
2022/01/20 12:10:57;;;;;;;;;;;;;;;22.58;18.54;100610.31;4957760;28;1954;-72
2022/01/20 12:13:23;;;;;;;;;;;;;;;22.67;18.79;100588.84;4953182;29;939;-72
2022/01/20 12:15:51;;;;;;;;;;;;;;;19.45;21.27;100580.09;4948033;28;1488;-71
2022/01/20 12:18:17;;;;;;;;;;;;;;;19.66;21.27;100578.53;4950588;29;1527;-72
2022/01/20 12:20:45;;;;;;;;;;;;;;;20.54;21.41;100592.47;4953150;28;1600;-68
2022/01/20 12:23:12;;;;;;;;;;;;;;;21.57;19.98;100584.84;4949587;29;1302;-72
2022/01/20 12:25:38;;;;;;;;;;;;;;;21.51;20.09;100604.06;4935650;29;1544;-71
2022/01/20 12:28:05;;;;;;;;;;;;;;;20.38;20.16;100607.34;4949668;29;1590;-71
2022/01/20 12:30:32;;;;;;;;;;;;;;;19.75;20.42;100588.41;4954514;28;1903;-70
2022/01/20 12:32:59;;;;;;;;;;;;;;;22.76;19.02;100604.22;4953330;28;1393;-69
2022/01/20 12:35:25;;;;;;;;;;;;;;;20.53;20.19;100613.66;4951313;28;1378;-69
2022/01/20 12:37:53;;;;;;;;;;;;;;;21.19;19.90;100604.44;4942025;28;1191;-70
2022/01/20 12:40:20;;;;;;;;;;;;;;;22.07;18.96;100597.69;4944074;29;960;-70
2022/01/20 12:42:47;;;;;;;;;;;;;;;22.10;19.52;100583.50;4952374;28;1566;-71
2022/01/20 12:48:10;;;;;;;;;;;;;;;21.65;19.96;100594.03;4935304;29;876;-73
2022/01/20 12:50:36;;;;;;;;;;;;;;;19.76;21.17;100592.00;4938281;29;1911;-70
2022/01/20 12:53:04;;;;;;;;;;;;;;;20.55;20.37;100586.75;4946400;29;1599;-74
2022/01/20 12:55:30;;;;;;;;;;;;;;;21.56;19.33;100583.13;4950064;29;1534;-72
2022/01/20 12:57:58;;;;;;;;;;;;;;;21.47;19.51;100573.28;4933518;29;856;-72
2022/01/20 13:00:24;;;;;;;;;;;;;;;21.02;19.01;100572.66;4934317;29;1555;-74
2022/01/20 13:02:51;;;;;;;;;;;;;;;22.74;18.21;100589.72;4953941;29;864;-72
2022/01/20 13:05:19;;;;;;;;;;;;;;;23.11;18.13;100583.84;4950671;28;1575;-70
2022/01/20 13:07:52;;;;;;;;;;;;;;;22.13;19.50;100596.91;4934885;29;762;-70
2022/01/20 13:10:29;;;;;;;;;;;;;;;21.28;19.00;100601.56;4950077;29;1968;-72
2022/01/20 13:12:56;;;;;;;;;;;;;;;20.92;18.14;100586.75;4952193;28;1368;-70
2022/01/20 13:15:24;;;;;;;;;;;;;;;19.13;20.55;100576.56;4952676;29;1458;-72
2022/01/20 13:18:01;;;;;;;;;;;;;;;21.93;18.44;100591.25;4951435;29;1488;-71
2022/01/20 13:20:27;;;;;;;;;;;;;;;22.08;18.42;100591.13;4953703;29;889;-72
2022/01/20 13:22:57;;;;;;;;;;;;;;;22.17;18.40;100586.28;4946542;28;1297;-72
2022/01/20 13:25:26;;;;;;;;;;;;;;;22.56;18.05;100591.16;4952745;28;1251;-71
2022/01/20 13:27:53;;;;;;;;;;;;;;;21.35;17.92;100591.41;4951705;28;1472;-73
2022/01/20 13:30:24;;;;;;;;;;;;;;;20.31;18.79;100596.22;4953341;28;1978;-70
2022/01/20 13:32:51;;;;;;;;;;;;;;;22.41;17.60;100590.47;4951747;28;1527;-70
2022/01/20 13:35:17;;;;;;;;;;;;;;;22.04;17.59;100578.78;4953115;29;1440;-73
2022/01/20 13:37:47;;;;;;;;;;;;;;;22.37;17.63;100575.34;4949956;28;1275;-73
2022/01/20 13:40:19;;;;;;;;;;;;;;;23.93;16.51;100581.75;4953008;28;1023;-73
2022/01/20 13:45:01;;;;;;;;;;;;;;;22.22;17.72;100587.38;4946742;28;1559;-73
2022/01/20 13:45:36;;;;;;;;;;;;;;;23.13;16.87;100588.16;4949834;28;1356;-74
2022/01/20 13:48:03;;;;;;;;;;;;;;;21.16;18.07;100592.94;4953938;28;968;-71
2022/01/20 13:50:31;;;;;;;;;;;;;;;21.89;18.16;100592.72;4937780;28;1969;-72
2022/01/20 13:53:00;;;;;;;;;;;;;;;21.32;18.63;100591.81;4937264;29;1555;-72
2022/01/20 13:55:27;;;;;;;;;;;;;;;21.19;17.84;100590.66;4952257;28;1551;-72
2022/01/20 13:57:55;;;;;;;;;;;;;;;21.42;17.77;100575.78;4949360;29;1300;-71
2022/01/20 14:00:22;;;;;;;;;;;;;;;20.05;19.51;100596.69;4953798;28;744;-72